Pagina principale
METAR-TAF:

METAR-TAF

Aeroporti :

Aeroporto di Forlì

Forlì, Italia

latitudine: 44-12N, longitudine: 012-04E, altezza: 27 m

Osservazione

Il bollettino è stato emesso 58 minuti fa, alle 07:50 UTC
Vento calmo
Temperature 20°C
Umidità 60%
Pressione 1024 hPa
Visibilità 10 km o più
nessuna nube inferiore a 1500 m e nessun cumulonembo

METAR: LIPK 140750Z 00000KT CAVOK 20/12 Q1024

Ora: 10:48 (08:48 UTC)

Previsione

Il bollettino è stato emesso 3 ore e 48 minuti fa, alle 05:00 UTC
Previsione valida dal 14 alle 06 UTC al 15 alle 06 UTC
Vento 5 kt da direzioni variabili
Visibilità 10 km o più
nessuna nube inferiore a 1500 m e nessun cumulonembo
Evoluzione graduale
dal 14 alle 12 UTC al 14 alle 14 UTC
Vento 10 kt da est
Evoluzione graduale
dal 14 alle 16 UTC al 14 alle 18 UTC
Vento 5 kt da direzioni variabili

TAF: LIPK 140500Z 1406/1506 VRB05KT CAVOK BECMG 1412/1414 09010KT BECMG 1416/1418 VRB05KT

Osservazioni e previsioni meteorologiche di più di 4000 aeroporti (messaggi METAR e TAF).

Le stazioni disponibili sono rappresentate dai dischi gialli e rossi sulla carta.

Puntare il mouse per vedere il nome della stazione.

Clicca sopra per visualizzare le osservazioni e previsioni meteorologiche.

Per cambiare la mappa : fare clic sui pulsanti verdi con una croce nera per ingrandire, il pulsante verde con un trattino per diminuire, o sulla freccia verde per le mappe adiacenti.


METAR-TAF: